Time;durP1;ratioP1;P1;durP2;ratioP2;P2;SDS_P1;SDS_P2;PMS_P1;PMS_P2;Temp;Humidity;BMP_temperature;BMP_pressure;BME280_temperature;BME280_humidity;BME280_pressure;Samples;Min_cycle;Max_cycle;Signal;HPM_P1;HPM_P2
2023/01/07 00:01:30;;;;;;;31.55;18.58;;;8.30;99.90;;;;;;5002506;28;20125;-90
2023/01/07 00:03:57;;;;;;;28.25;16.60;;;8.30;99.90;;;;;;5010088;28;20183;-91
2023/01/07 00:06:26;;;;;;;29.23;17.70;;;8.30;99.90;;;;;;4994656;28;20125;-90
2023/01/07 00:08:54;;;;;;;30.52;18.58;;;8.40;99.90;;;;;;5012530;28;20632;-89
2023/01/07 00:11:26;;;;;;;29.83;18.13;;;8.40;99.90;;;;;;5009733;28;20083;-90
2023/01/07 00:14:02;;;;;;;30.17;19.13;;;8.30;99.90;;;;;;5027541;28;20496;-90
2023/01/07 00:16:43;;;;;;;31.27;19.75;;;8.50;99.90;;;;;;5010700;28;20305;-90
2023/01/07 00:19:23;;;;;;;30.80;18.70;;;8.60;99.90;;;;;;5014576;28;20057;-89
2023/01/07 00:21:51;;;;;;;33.05;20.10;;;8.60;99.90;;;;;;5009220;28;20567;-90
2023/01/07 00:24:17;;;;;;;32.40;19.90;;;8.70;99.90;;;;;;4999141;28;20053;-90
2023/01/07 00:26:45;;;;;;;32.75;20.30;;;8.70;99.90;;;;;;5027405;28;20060;-90
2023/01/07 00:29:13;;;;;;;31.88;19.75;;;8.80;99.90;;;;;;5009708;28;20033;-90
2023/01/07 00:31:48;;;;;;;35.05;21.52;;;8.90;99.90;;;;;;5006201;28;20045;-90
2023/01/07 00:34:22;;;;;;;29.23;18.40;;;8.80;99.90;;;;;;5009295;28;20053;-91
2023/01/07 00:36:48;;;;;;;31.00;19.52;;;8.90;99.90;;;;;;5023288;28;20099;-88
2023/01/07 00:39:17;;;;;;;32.80;19.45;;;9.00;99.90;;;;;;5011121;28;20631;-90
2023/01/07 00:44:41;;;;;;;29.77;18.85;;;8.20;99.90;;;;;;5024811;28;20049;-89
2023/01/07 00:47:07;;;;;;;30.27;19.42;;;9.10;99.90;;;;;;5008673;28;20034;-88
2023/01/07 00:49:38;;;;;;;29.48;19.05;;;9.10;99.90;;;;;;5025871;28;20413;-89
2023/01/07 00:52:04;;;;;;;29.65;19.38;;;9.20;99.90;;;;;;4967726;28;20045;-91
2023/01/07 00:54:30;;;;;;;30.90;18.25;;;9.10;99.90;;;;;;4991696;28;20192;-90
2023/01/07 00:57:01;;;;;;;29.52;18.30;;;9.30;99.90;;;;;;5004698;28;20148;-90
2023/01/07 00:59:30;;;;;;;29.95;19.00;;;9.30;99.90;;;;;;4973195;28;20132;-90
2023/01/07 01:01:56;;;;;;;28.50;18.13;;;;;;;;;;5008264;28;20386;-89
2023/01/07 01:04:22;;;;;;;28.90;16.73;;;9.40;99.90;;;;;;5023846;28;20545;-89
2023/01/07 01:06:48;;;;;;;27.70;18.00;;;9.40;99.90;;;;;;4990162;28;20116;-90
2023/01/07 01:09:19;;;;;;;29.92;17.98;;;9.20;99.90;;;;;;5003428;28;20068;-89
2023/01/07 01:11:45;;;;;;;27.50;16.60;;;9.40;99.90;;;;;;5010071;28;20124;-90
2023/01/07 01:14:11;;;;;;;25.95;16.70;;;9.40;99.90;;;;;;4990507;28;20167;-89
2023/01/07 01:16:36;;;;;;;26.52;15.95;;;8.30;99.90;;;;;;4993230;28;20048;-90
2023/01/07 01:19:02;;;;;;;26.50;16.58;;;9.80;99.90;;;;;;5009173;28;20049;-88
2023/01/07 01:21:31;;;;;;;31.52;17.05;;;9.50;99.90;;;;;;5005082;28;20107;-90
2023/01/07 01:23:57;;;;;;;26.17;16.75;;;;;;;;;;5006881;28;20041;-91
2023/01/07 01:26:24;;;;;;;27.58;17.58;;;9.50;99.90;;;;;;5006573;28;20049;-89
2023/01/07 01:28:49;;;;;;;26.30;16.65;;;9.60;99.90;;;;;;4978104;28;20511;-89
2023/01/07 01:31:21;;;;;;;25.35;16.45;;;;;;;;;;5008995;28;20042;-90
2023/01/07 01:34:20;;;;;;;26.23;17.27;;;9.60;99.90;;;;;;5021079;28;20061;-92
2023/01/07 01:37:14;;;;;;;26.05;16.48;;;9.70;99.90;;;;;;5008372;28;20046;-90
2023/01/07 01:39:39;;;;;;;24.65;15.93;;;9.70;99.90;;;;;;4996482;28;20741;-88
2023/01/07 01:42:28;;;;;;;22.38;15.32;;;9.70;99.90;;;;;;5002210;28;20041;-89
2023/01/07 01:44:56;;;;;;;23.20;15.93;;;9.70;99.90;;;;;;5001520;28;20529;-89
2023/01/07 01:47:57;;;;;;;24.95;16.60;;;9.70;99.90;;;;;;5016933;28;20094;-90
2023/01/07 01:50:31;;;;;;;;;;;9.80;99.90;;;;;;5003497;28;20670;-89
2023/01/07 01:52:57;;;;;;;24.30;14.85;;;9.80;99.90;;;;;;5002627;28;19917;-90
2023/01/07 01:55:39;;;;;;;24.08;15.45;;;9.80;99.90;;;;;;5008668;28;20037;-91
2023/01/07 01:58:09;;;;;;;24.45;15.82;;;9.80;99.90;;;;;;5007572;28;20464;-90
2023/01/07 02:00:36;;;;;;;23.52;15.70;;;9.80;99.90;;;;;;4999090;28;20045;-90
2023/01/07 02:03:12;;;;;;;26.35;16.00;;;9.90;99.90;;;;;;5006614;28;20045;-90
2023/01/07 02:05:43;;;;;;;23.85;15.52;;;9.90;99.90;;;;;;5022684;28;20041;-89
2023/01/07 02:08:13;;;;;;;23.08;15.32;;;9.90;99.90;;;;;;5006376;28;20055;-90
2023/01/07 02:10:47;;;;;;;24.60;15.88;;;9.90;99.90;;;;;;5005660;28;20069;-90
2023/01/07 02:13:31;;;;;;;24.48;16.08;;;9.90;99.90;;;;;;5008732;28;20037;-90
2023/01/07 02:15:56;;;;;;;22.30;15.63;;;10.00;99.90;;;;;;5021672;28;20117;-89
2023/01/07 02:18:47;;;;;;;24.77;15.95;;;10.00;99.90;;;;;;5003695;28;20120;-90
2023/01/07 02:21:36;;;;;;;25.15;16.48;;;10.00;99.90;;;;;;5020618;28;20701;-90
2023/01/07 02:24:23;;;;;;;24.40;16.30;;;10.00;99.90;;;;;;5025356;28;20045;-90
2023/01/07 02:26:58;;;;;;;24.52;16.52;;;10.00;99.90;;;;;;5005422;28;20071;-90
2023/01/07 02:29:54;;;;;;;24.83;16.30;;;10.00;99.90;;;;;;5019800;28;20071;-91
2023/01/07 02:32:29;;;;;;;24.80;16.30;;;10.00;99.90;;;;;;4997344;28;20413;-88
2023/01/07 02:35:24;;;;;;;25.33;16.17;;;10.00;99.90;;;;;;5024698;28;20040;-90
2023/01/07 02:38:23;;;;;;;24.98;15.90;;;10.00;99.90;;;;;;5023749;28;20038;-90
2023/01/07 02:41:00;;;;;;;24.10;16.92;;;;;;;;;;5024432;28;20045;-89
2023/01/07 02:43:55;;;;;;;25.40;17.17;;;10.00;99.90;;;;;;5007013;28;20195;-91
2023/01/07 02:46:36;;;;;;;25.90;17.35;;;10.00;99.90;;;;;;5024272;28;20316;-90
2023/01/07 02:49:11;;;;;;;25.45;17.10;;;10.10;99.90;;;;;;5005989;28;20049;-90
2023/01/07 02:51:38;;;;;;;;;;;10.10;99.90;;;;;;5007799;28;20048;-92
2023/01/07 02:54:08;;;;;;;24.75;17.38;;;10.10;99.90;;;;;;5008091;28;20369;-90
2023/01/07 02:57:00;;;;;;;23.92;16.70;;;10.10;99.90;;;;;;5010346;28;20071;-89
2023/01/07 02:59:41;;;;;;;24.83;17.75;;;10.10;99.90;;;;;;5007395;28;20098;-89
2023/01/07 03:02:35;;;;;;;25.02;18.55;;;10.10;99.90;;;;;;5020947;28;20045;-91
2023/01/07 03:05:15;;;;;;;26.35;17.30;;;10.00;99.90;;;;;;5004303;28;20049;-89
2023/01/07 03:07:42;;;;;;;24.83;17.55;;;;;;;;;;5000223;28;20044;-91
2023/01/07 03:10:37;;;;;;;25.55;18.17;;;10.10;99.90;;;;;;5020674;28;20041;-90
2023/01/07 03:13:10;;;;;;;25.00;17.90;;;10.10;99.90;;;;;;5022347;28;20049;-90
2023/01/07 03:15:44;;;;;;;25.55;18.40;;;10.10;99.90;;;;;;5006367;28;20076;-89
2023/01/07 03:18:18;;;;;;;24.02;17.98;;;10.20;99.90;;;;;;5006083;28;20040;-90
2023/01/07 03:20:52;;;;;;;25.85;18.92;;;10.10;99.90;;;;;;5022058;28;20041;-90
2023/01/07 03:23:21;;;;;;;22.58;16.95;;;10.20;99.90;;;;;;5000258;28;20052;-89
2023/01/07 03:25:54;;;;;;;24.85;18.77;;;10.20;99.90;;;;;;5003164;28;20073;-89
2023/01/07 03:28:31;;;;;;;25.02;18.27;;;10.10;99.90;;;;;;5017354;28;20490;-90
2023/01/07 03:30:58;;;;;;;25.42;18.10;;;10.20;99.90;;;;;;4977643;28;20060;-89
2023/01/07 03:33:35;;;;;;;24.17;18.33;;;10.10;99.90;;;;;;5009945;28;20340;-89
2023/01/07 03:36:03;;;;;;;25.77;19.05;;;10.10;99.90;;;;;;5024056;28;20073;-89
2023/01/07 03:38:30;;;;;;;24.38;18.05;;;10.20;99.90;;;;;;5009633;28;20120;-90
2023/01/07 03:42:38;;;;;;;24.60;18.20;;;10.10;99.90;;;;;;5008836;28;20052;-90
2023/01/07 03:43:47;;;;;;;23.90;17.38;;;10.20;99.90;;;;;;4999451;28;20056;-89
2023/01/07 03:46:15;;;;;;;22.25;17.08;;;10.20;99.90;;;;;;5022239;28;20033;-90
2023/01/07 03:48:45;;;;;;;23.63;17.30;;;10.20;99.90;;;;;;5008318;28;20075;-89
2023/01/07 03:51:14;;;;;;;22.70;17.67;;;10.20;99.90;;;;;;5004881;28;20045;-89
2023/01/07 03:53:40;;;;;;;22.55;16.67;;;10.20;99.90;;;;;;4974256;28;20052;-90
2023/01/07 03:56:06;;;;;;;21.73;17.08;;;10.10;99.90;;;;;;4985029;28;20226;-90
2023/01/07 03:58:32;;;;;;;22.55;17.05;;;10.20;99.90;;;;;;5018703;28;20040;-90
2023/01/07 04:01:00;;;;;;;25.20;18.13;;;9.90;99.90;;;;;;5004585;28;20481;-90
2023/01/07 04:03:39;;;;;;;23.60;16.30;;;10.10;99.90;;;;;;5009111;28;20045;-89
2023/01/07 04:06:05;;;;;;;21.50;16.63;;;10.20;99.90;;;;;;4982579;28;20046;-90
2023/01/07 04:08:30;;;;;;;23.33;17.00;;;10.20;99.90;;;;;;5000962;28;20054;-90
2023/01/07 04:10:59;;;;;;;23.70;16.50;;;10.20;99.90;;;;;;4976020;28;20041;-90
2023/01/07 04:13:30;;;;;;;23.10;15.95;;;;;;;;;;5008746;28;20048;-90
2023/01/07 04:15:59;;;;;;;22.05;16.52;;;10.20;99.90;;;;;;5006961;28;20104;-89
2023/01/07 04:18:28;;;;;;;23.00;16.00;;;10.20;99.90;;;;;;4977205;28;20044;-91
2023/01/07 04:20:56;;;;;;;21.88;16.45;;;10.20;99.90;;;;;;5009977;28;20432;-90
2023/01/07 04:23:32;;;;;;;21.23;16.30;;;10.20;99.90;;;;;;5018398;28;20045;-90
2023/01/07 04:26:07;;;;;;;24.65;16.27;;;10.20;99.90;;;;;;5024155;28;20102;-89
2023/01/07 04:28:35;;;;;;;21.42;16.42;;;10.20;99.90;;;;;;5007734;28;20033;-88
2023/01/07 04:31:04;;;;;;;25.92;17.00;;;10.10;99.90;;;;;;5005756;28;20065;-89
2023/01/07 04:33:30;;;;;;;20.27;16.08;;;10.20;99.90;;;;;;5023641;28;20045;-90
2023/01/07 04:35:56;;;;;;;22.40;16.10;;;10.10;99.90;;;;;;5008617;28;20041;-91
2023/01/07 04:38:24;;;;;;;21.98;15.85;;;10.20;99.90;;;;;;4988928;28;20481;-90
2023/01/07 04:40:55;;;;;;;21.52;16.13;;;10.30;99.90;;;;;;4985600;28;20041;-90
2023/01/07 04:43:27;;;;;;;22.55;16.60;;;10.20;99.90;;;;;;4992737;28;20476;-90
2023/01/07 04:45:53;;;;;;;21.80;16.20;;;9.50;99.90;;;;;;5007826;28;20363;-91
2023/01/07 04:48:18;;;;;;;22.70;15.63;;;10.20;99.90;;;;;;4992027;28;20181;-90
2023/01/07 04:50:46;;;;;;;21.25;15.40;;;10.10;99.90;;;;;;5004350;28;20045;-90
2023/01/07 04:53:12;;;;;;;19.67;15.30;;;10.20;99.90;;;;;;5017244;28;20037;-90
2023/01/07 04:55:41;;;;;;;20.67;15.38;;;10.20;99.90;;;;;;4984636;28;20096;-90
2023/01/07 04:58:06;;;;;;;21.58;15.48;;;10.20;99.90;;;;;;5002467;28;20096;-91
2023/01/07 05:00:33;;;;;;;22.85;15.20;;;;;;;;;;5004081;28;20468;-89
2023/01/07 05:02:58;;;;;;;21.42;15.18;;;10.20;99.90;;;;;;5003947;28;20518;-91
2023/01/07 05:05:25;;;;;;;23.60;15.20;;;10.10;99.90;;;;;;4989219;28;20041;-90
2023/01/07 05:07:51;;;;;;;23.48;15.07;;;10.10;99.90;;;;;;5004652;28;20037;-91
2023/01/07 05:10:19;;;;;;;19.63;13.80;;;10.20;99.90;;;;;;4994397;28;20095;-90
2023/01/07 05:12:45;;;;;;;21.08;14.07;;;10.20;99.90;;;;;;4993310;28;20041;-90
2023/01/07 05:15:11;;;;;;;19.90;14.40;;;10.10;99.90;;;;;;5023623;28;20060;-91
2023/01/07 05:17:40;;;;;;;18.60;12.75;;;10.20;99.90;;;;;;5008578;28;20478;-89
2023/01/07 05:20:07;;;;;;;20.23;13.95;;;;;;;;;;5000252;28;20407;-88
2023/01/07 05:22:35;;;;;;;21.52;14.88;;;10.20;99.90;;;;;;5003775;28;20053;-90
2023/01/07 05:25:06;;;;;;;20.90;13.23;;;10.10;99.90;;;;;;4986526;28;20045;-91
2023/01/07 05:27:32;;;;;;;20.90;13.43;;;10.10;99.90;;;;;;5004926;28;20620;-90
2023/01/07 05:30:06;;;;;;;18.65;13.02;;;10.10;99.90;;;;;;5018142;28;20056;-90
2023/01/07 05:32:32;;;;;;;19.60;13.32;;;10.10;99.90;;;;;;4979556;28;20037;-90
2023/01/07 05:35:01;;;;;;;18.63;13.27;;;;;;;;;;5008373;28;20045;-90
2023/01/07 05:37:26;;;;;;;19.08;13.15;;;10.10;99.90;;;;;;5026092;28;20497;-90
2023/01/07 05:39:52;;;;;;;17.50;12.55;;;10.10;99.90;;;;;;5006359;28;20128;-90
2023/01/07 05:42:18;;;;;;;17.10;12.25;;;10.10;99.90;;;;;;4986855;28;20045;-90
2023/01/07 05:44:52;;;;;;;18.55;12.27;;;10.10;99.90;;;;;;5023722;28;20041;-91
2023/01/07 05:47:17;;;;;;;19.30;12.07;;;10.10;99.90;;;;;;5006375;28;20072;-89
2023/01/07 05:49:43;;;;;;;16.73;11.73;;;10.10;99.90;;;;;;4989621;28;20038;-91
2023/01/07 05:52:09;;;;;;;16.60;11.32;;;10.10;99.90;;;;;;4990243;28;20049;-90
2023/01/07 05:54:38;;;;;;;15.95;11.55;;;9.40;99.90;;;;;;5024338;28;20045;-90
2023/01/07 05:57:07;;;;;;;15.38;10.32;;;10.00;99.90;;;;;;5006680;28;20513;-91
2023/01/07 05:59:33;;;;;;;15.73;10.43;;;10.00;99.90;;;;;;4990103;28;20152;-90
2023/01/07 06:02:00;;;;;;;20.15;11.13;;;10.10;99.90;;;;;;5020508;28;20041;-90
2023/01/07 06:04:26;;;;;;;16.70;10.88;;;10.10;99.90;;;;;;5000728;28;20069;-91
2023/01/07 06:06:52;;;;;;;16.52;10.23;;;10.10;99.90;;;;;;5004463;28;20037;-90
2023/01/07 06:09:18;;;;;;;16.75;11.05;;;10.10;99.90;;;;;;4995109;28;20040;-88
2023/01/07 06:11:44;;;;;;;19.98;11.68;;;10.10;99.90;;;;;;5009046;28;20504;-90
2023/01/07 06:14:17;;;;;;;15.95;10.45;;;10.10;99.90;;;;;;4989984;28;20048;-91
2023/01/07 06:16:43;;;;;;;16.10;10.57;;;10.10;99.90;;;;;;4988178;28;20049;-88
2023/01/07 06:19:10;;;;;;;17.38;10.50;;;10.10;99.90;;;;;;5006661;28;20435;-89
2023/01/07 06:21:36;;;;;;;16.27;10.45;;;10.10;99.90;;;;;;5005770;28;20068;-88
2023/01/07 06:24:02;;;;;;;16.05;9.85;;;10.10;99.90;;;;;;5023019;28;20083;-89
2023/01/07 06:26:30;;;;;;;14.70;9.38;;;10.10;99.90;;;;;;4986779;28;20124;-89
2023/01/07 06:28:56;;;;;;;17.05;9.73;;;10.00;99.90;;;;;;5008192;28;20452;-90
2023/01/07 06:31:22;;;;;;;16.75;9.82;;;10.10;99.90;;;;;;4987764;28;20045;-90
2023/01/07 06:33:47;;;;;;;19.33;9.90;;;10.10;99.90;;;;;;4989584;28;20042;-91
2023/01/07 06:36:13;;;;;;;13.60;9.60;;;10.10;99.90;;;;;;4990789;28;20426;-89
2023/01/07 06:38:40;;;;;;;17.58;9.75;;;10.00;99.90;;;;;;5023639;28;20042;-90
2023/01/07 06:41:07;;;;;;;15.68;8.93;;;10.10;99.90;;;;;;4997769;28;20510;-90
2023/01/07 06:43:37;;;;;;;16.88;9.15;;;10.00;99.90;;;;;;5025081;28;20041;-90
2023/01/07 06:46:03;;;;;;;15.00;9.50;;;9.90;99.90;;;;;;4995916;28;21494;-89
2023/01/07 06:48:35;;;;;;;16.17;9.07;;;10.00;99.90;;;;;;5008720;28;20041;-90
2023/01/07 06:51:12;;;;;;;14.00;9.23;;;9.60;99.90;;;;;;5007007;28;20041;-90
2023/01/07 06:53:46;;;;;;;14.27;8.73;;;10.00;99.90;;;;;;5005392;28;20379;-90
2023/01/07 06:56:12;;;;;;;16.20;9.23;;;10.00;99.90;;;;;;5004582;28;20465;-90
2023/01/07 06:58:38;;;;;;;14.07;8.88;;;9.90;99.90;;;;;;5024291;28;20056;-91
2023/01/07 07:01:09;;;;;;;15.82;8.85;;;10.00;99.90;;;;;;5004714;28;20502;-91
2023/01/07 07:03:35;;;;;;;14.85;8.32;;;9.90;99.90;;;;;;5005070;28;20124;-90
2023/01/07 07:06:01;;;;;;;15.23;9.23;;;10.00;99.90;;;;;;4987487;28;21409;-90
2023/01/07 07:08:27;;;;;;;17.60;9.18;;;10.00;99.90;;;;;;5028397;28;20122;-91
2023/01/07 07:10:52;;;;;;;14.15;8.38;;;10.00;99.90;;;;;;5024035;28;20038;-90
2023/01/07 07:13:18;;;;;;;13.60;8.43;;;10.00;99.90;;;;;;4991711;28;20041;-90
2023/01/07 07:15:44;;;;;;;14.48;8.43;;;10.00;99.90;;;;;;4975204;28;20037;-90
2023/01/07 07:18:09;;;;;;;13.30;8.80;;;10.00;99.90;;;;;;4992901;28;20037;-90
2023/01/07 07:20:35;;;;;;;14.43;8.30;;;10.00;99.90;;;;;;4991855;28;20493;-89
2023/01/07 07:23:03;;;;;;;14.07;8.18;;;10.00;99.90;;;;;;4991340;28;20150;-90
2023/01/07 07:25:29;;;;;;;12.30;7.82;;;10.00;99.90;;;;;;5005938;28;21287;-90
2023/01/07 07:27:55;;;;;;;15.15;7.93;;;10.00;99.90;;;;;;5022946;28;20045;-90
2023/01/07 07:30:23;;;;;;;15.25;8.02;;;9.90;99.90;;;;;;5003450;28;20100;-91
2023/01/07 07:32:50;;;;;;;11.40;6.97;;;;;;;;;;5036816;28;20159;-89
2023/01/07 07:35:18;;;;;;;13.32;7.20;;;10.00;99.90;;;;;;5007947;28;20478;-93
2023/01/07 07:37:44;;;;;;;13.02;7.63;;;10.00;99.90;;;;;;5007170;28;20056;-90
2023/01/07 07:40:15;;;;;;;12.90;7.35;;;10.00;99.90;;;;;;4998511;28;20038;-89
2023/01/07 07:42:47;;;;;;;14.15;7.72;;;10.70;99.90;;;;;;4988620;28;20603;-90
2023/01/07 07:45:18;;;;;;;14.27;7.78;;;10.00;99.90;;;;;;5003958;28;20045;-89
2023/01/07 07:48:04;;;;;;;14.55;7.88;;;11.00;99.90;;;;;;4992606;28;20175;-91
2023/01/07 07:50:38;;;;;;;12.25;6.75;;;10.00;99.90;;;;;;5038930;28;20034;-90
2023/01/07 07:53:14;;;;;;;14.40;7.47;;;10.00;99.90;;;;;;5008555;28;20041;-89
2023/01/07 07:55:39;;;;;;;13.77;7.28;;;10.00;99.90;;;;;;4986585;28;20577;-90
2023/01/07 07:58:14;;;;;;;12.70;7.60;;;10.00;99.90;;;;;;5005259;28;20050;-90
2023/01/07 08:00:40;;;;;;;12.02;6.55;;;10.00;99.90;;;;;;5004319;28;20037;-91
2023/01/07 08:03:07;;;;;;;14.63;7.30;;;10.00;99.90;;;;;;5004278;28;20046;-91
2023/01/07 08:05:37;;;;;;;12.52;6.68;;;10.00;99.90;;;;;;5005966;28;20629;-91
2023/01/07 08:08:19;;;;;;;11.25;6.38;;;11.10;99.90;;;;;;5024613;28;20068;-92
2023/01/07 08:10:47;;;;;;;12.07;6.85;;;9.90;99.90;;;;;;4995576;28;20041;-92
2023/01/07 08:13:19;;;;;;;11.85;6.72;;;9.90;99.90;;;;;;4986856;28;20041;-91
2023/01/07 08:15:46;;;;;;;11.93;6.60;;;9.90;99.90;;;;;;5025058;28;20079;-90
2023/01/07 08:18:30;;;;;;;12.25;6.38;;;9.90;99.90;;;;;;5006887;28;20581;-91
2023/01/07 08:21:07;;;;;;;11.27;6.22;;;9.90;99.90;;;;;;5007754;28;20026;-90
2023/01/07 08:23:38;;;;;;;12.27;6.47;;;9.90;99.90;;;;;;5007635;28;20045;-90
2023/01/07 08:26:06;;;;;;;11.73;6.50;;;9.90;99.90;;;;;;4974403;28;20037;-91
2023/01/07 08:28:36;;;;;;;13.15;6.20;;;9.90;99.90;;;;;;4981546;28;20041;-90
2023/01/07 08:31:09;;;;;;;10.43;5.93;;;9.80;99.90;;;;;;5023237;28;20083;-90
2023/01/07 08:33:37;;;;;;;11.13;5.97;;;9.90;99.90;;;;;;5001133;28;20049;-91
2023/01/07 08:36:10;;;;;;;10.10;5.38;;;9.80;99.90;;;;;;5005701;28;20157;-88
2023/01/07 08:38:36;;;;;;;12.80;6.18;;;10.70;99.90;;;;;;5007570;28;20033;-89
2023/01/07 08:41:02;;;;;;;10.30;5.50;;;9.80;99.90;;;;;;4990969;28;20033;-89
2023/01/07 08:43:29;;;;;;;10.57;5.05;;;9.90;99.90;;;;;;5006347;28;20417;-89
2023/01/07 08:45:55;;;;;;;10.98;5.65;;;9.90;99.90;;;;;;4988258;28;20111;-89
2023/01/07 08:48:26;;;;;;;10.40;5.10;;;9.90;99.90;;;;;;5001254;28;20044;-90
2023/01/07 08:50:57;;;;;;;11.40;5.20;;;9.90;99.90;;;;;;5003195;28;20033;-91
2023/01/07 08:53:29;;;;;;;10.57;4.80;;;9.80;99.90;;;;;;5005568;28;20077;-89
2023/01/07 08:55:55;;;;;;;9.38;4.60;;;9.90;99.90;;;;;;4993287;28;20081;-87
2023/01/07 08:58:21;;;;;;;9.80;4.85;;;10.00;99.90;;;;;;4999414;28;20376;-88
2023/01/07 09:00:47;;;;;;;10.63;4.72;;;10.00;99.90;;;;;;5020358;28;20073;-89
2023/01/07 09:03:15;;;;;;;11.68;4.53;;;10.30;99.90;;;;;;4981820;28;20042;-91
2023/01/07 09:05:41;;;;;;;11.60;4.78;;;10.00;99.90;;;;;;5033907;28;20126;-89
2023/01/07 09:08:07;;;;;;;11.90;4.78;;;9.90;99.90;;;;;;5017182;28;20040;-89
2023/01/07 09:10:33;;;;;;;8.98;3.85;;;10.00;99.90;;;;;;5013769;28;20079;-90
2023/01/07 09:12:59;;;;;;;10.27;4.60;;;;;;;;;;5012702;28;20076;-91
2023/01/07 09:15:28;;;;;;;9.18;4.45;;;10.00;99.90;;;;;;5004800;28;20084;-90
2023/01/07 09:17:54;;;;;;;9.57;4.47;;;10.00;99.90;;;;;;5033615;28;20194;-89
2023/01/07 09:20:20;;;;;;;8.93;4.28;;;9.90;99.90;;;;;;5033137;28;20497;-90
2023/01/07 09:22:46;;;;;;;10.73;4.68;;;9.90;99.90;;;;;;4996241;28;20084;-89
2023/01/07 09:25:17;;;;;;;9.05;4.53;;;10.00;99.90;;;;;;5025876;28;20076;-89
2023/01/07 09:28:01;;;;;;;;;;;;;;;;;;;;;
2023/01/07 09:30:27;;;;;;;11.77;4.35;;;10.00;99.90;;;;;;5012055;28;20099;-89
2023/01/07 09:32:55;;;;;;;8.73;3.92;;;10.00;99.90;;;;;;5013542;28;20037;-91
2023/01/07 09:35:21;;;;;;;8.98;3.72;;;10.00;99.90;;;;;;5001739;28;20579;-88
2023/01/07 09:37:47;;;;;;;8.80;3.88;;;10.00;99.90;;;;;;5002402;28;20044;-90
2023/01/07 09:40:37;;;;;;;10.32;4.25;;;10.10;99.90;;;;;;5012105;28;20049;-90
2023/01/07 09:43:19;;;;;;;9.32;4.22;;;;;;;;;;5026468;28;20084;-90
2023/01/07 09:45:59;;;;;;;9.75;4.03;;;10.00;99.90;;;;;;5026746;28;20041;-90
2023/01/07 09:48:38;;;;;;;9.13;3.88;;;10.00;99.90;;;;;;4988722;28;20215;-88
2023/01/07 09:51:19;;;;;;;9.43;4.22;;;8.20;99.90;;;;;;4659320;28;9999830;-90
2023/01/07 09:53:51;;;;;;;8.15;3.53;;;10.00;99.90;;;;;;5001917;28;20052;-90
2023/01/07 09:56:25;;;;;;;8.38;3.78;;;10.00;99.90;;;;;;5019880;28;20053;-90
2023/01/07 09:58:52;;;;;;;10.10;4.20;;;;;;;;;;4998460;28;20030;-90
2023/01/07 10:01:30;;;;;;;8.85;3.53;;;10.00;99.90;;;;;;5021874;28;20073;-89
2023/01/07 10:04:08;;;;;;;9.77;3.60;;;10.00;99.90;;;;;;5007181;28;20065;-90
2023/01/07 10:07:21;;;;;;;7.90;3.60;;;10.00;99.90;;;;;;5020044;28;20033;-91
2023/01/07 10:09:53;;;;;;;9.83;3.47;;;10.00;99.90;;;;;;4998737;28;20532;-88
2023/01/07 10:12:59;;;;;;;8.70;3.80;;;10.00;99.90;;;;;;5013395;28;20037;-88
2023/01/07 10:15:28;;;;;;;7.93;3.47;;;;;;;;;;5006797;28;20046;-90
2023/01/07 10:17:57;;;;;;;9.02;3.40;;;10.00;99.90;;;;;;5044488;28;20051;-88
2023/01/07 10:20:59;;;;;;;7.63;3.40;;;10.00;99.90;;;;;;5049178;28;20131;-90
2023/01/07 10:23:35;;;;;;;10.65;3.97;;;10.00;99.90;;;;;;5019658;28;20048;-92
2023/01/07 10:26:12;;;;;;;9.52;3.67;;;10.00;99.90;;;;;;5011505;28;20033;-91
2023/01/07 10:28:43;;;;;;;8.85;3.33;;;10.00;99.90;;;;;;5019654;28;20095;-89
2023/01/07 10:31:35;;;;;;;8.73;3.53;;;10.00;99.90;;;;;;5018187;28;20116;-90
2023/01/07 10:34:01;;;;;;;9.05;3.30;;;10.10;99.90;;;;;;5038125;28;20131;-89
2023/01/07 10:36:38;;;;;;;8.43;3.25;;;10.10;99.90;;;;;;5012391;28;20052;-90
2023/01/07 10:39:22;;;;;;;8.68;3.33;;;10.10;99.90;;;;;;5000774;28;20494;-89
2023/01/07 10:42:26;;;;;;;9.35;3.22;;;10.20;99.90;;;;;;5005834;28;20496;-91
2023/01/07 10:45:10;;;;;;;7.57;3.25;;;10.20;99.90;;;;;;5030401;28;20072;-90
2023/01/07 10:48:02;;;;;;;9.93;3.30;;;8.00;99.90;;;;;;5010158;28;20044;-89
2023/01/07 10:51:00;;;;;;;8.95;3.42;;;10.10;99.90;;;;;;5008771;28;20046;-90
2023/01/07 10:53:43;;;;;;;8.75;2.97;;;10.20;99.90;;;;;;4999841;28;20064;-88
2023/01/07 10:56:15;;;;;;;7.97;3.00;;;10.20;99.90;;;;;;5027684;28;20147;-90
2023/01/07 10:58:44;;;;;;;8.25;3.00;;;10.20;99.90;;;;;;5027943;28;20045;-90
2023/01/07 11:01:33;;;;;;;7.30;3.05;;;10.30;99.90;;;;;;5011935;28;20120;-90
2023/01/07 11:04:11;;;;;;;8.73;3.13;;;10.30;99.90;;;;;;5012421;28;20053;-90
2023/01/07 11:06:46;;;;;;;8.27;2.75;;;10.40;99.90;;;;;;4999203;28;20383;-91
2023/01/07 11:09:17;;;;;;;8.27;3.10;;;10.40;99.90;;;;;;5010799;28;20072;-89
2023/01/07 11:11:45;;;;;;;7.55;2.60;;;10.40;99.90;;;;;;5012184;28;20033;-91
2023/01/07 11:14:26;;;;;;;7.07;2.72;;;10.30;99.90;;;;;;5042758;28;20460;-91
2023/01/07 11:17:06;;;;;;;7.80;2.85;;;10.40;99.90;;;;;;5012090;28;20046;-89
2023/01/07 11:19:51;;;;;;;7.38;2.63;;;10.50;99.90;;;;;;5030542;28;20397;-91
2023/01/07 11:22:26;;;;;;;6.53;2.50;;;10.40;99.90;;;;;;5045283;28;20053;-90
2023/01/07 11:24:56;;;;;;;7.95;2.83;;;10.50;99.90;;;;;;5004884;28;20297;-90
2023/01/07 11:27:32;;;;;;;7.75;2.67;;;10.50;99.90;;;;;;5019918;28;20073;-91
2023/01/07 11:30:00;;;;;;;7.32;2.42;;;10.50;99.90;;;;;;5022065;28;20048;-91
2023/01/07 11:32:51;;;;;;;8.10;2.78;;;10.60;99.90;;;;;;5031658;28;20051;-91
2023/01/07 11:35:21;;;;;;;6.93;2.67;;;10.20;99.90;;;;;;5003290;28;20049;-90
2023/01/07 11:37:51;;;;;;;6.60;2.30;;;10.70;99.90;;;;;;5029023;28;20479;-90
2023/01/07 11:40:19;;;;;;;7.65;2.67;;;10.80;99.90;;;;;;5000207;28;20573;-90
2023/01/07 11:42:58;;;;;;;9.13;2.50;;;10.70;99.90;;;;;;5026511;28;20033;-90
2023/01/07 11:45:25;;;;;;;8.39;2.50;;;10.80;99.90;;;;;;4668294;28;10000679;-91
2023/01/07 11:48:08;;;;;;;7.13;2.28;;;10.70;99.90;;;;;;4661711;28;9999753;-89
2023/01/07 11:50:40;;;;;;;5.35;2.13;;;10.80;99.90;;;;;;5024951;28;20038;-90
2023/01/07 11:53:09;;;;;;;5.85;2.20;;;10.70;99.90;;;;;;5018964;28;20411;-90
2023/01/07 11:55:56;;;;;;;5.88;2.30;;;;;;;;;;5007661;28;20045;-90
2023/01/07 11:58:27;;;;;;;6.10;2.30;;;10.80;99.90;;;;;;5011962;28;20060;-90
2023/01/07 12:01:11;;;;;;;6.53;2.20;;;10.80;99.90;;;;;;5020091;28;20045;-90
2023/01/07 12:03:41;;;;;;;6.93;2.28;;;10.80;99.90;;;;;;5004271;28;20595;-91
2023/01/07 12:06:10;;;;;;;5.68;2.10;;;10.80;99.90;;;;;;5009970;28;20057;-89
2023/01/07 12:08:41;;;;;;;6.72;2.40;;;10.70;99.90;;;;;;5025497;28;20041;-91
2023/01/07 12:11:10;;;;;;;6.15;2.20;;;10.80;99.90;;;;;;5006638;28;20040;-91
2023/01/07 12:13:58;;;;;;;7.03;2.50;;;10.80;99.90;;;;;;5007478;28;20049;-90
2023/01/07 12:16:39;;;;;;;6.82;2.25;;;10.80;99.90;;;;;;5003999;28;20462;-91
2023/01/07 12:19:39;;;;;;;7.15;2.50;;;10.80;99.90;;;;;;4995710;28;20046;-90
2023/01/07 12:22:30;;;;;;;6.15;2.30;;;10.70;99.90;;;;;;5006729;28;20502;-90
2023/01/07 12:25:29;;;;;;;6.28;2.08;;;10.80;99.90;;;;;;5030269;28;20645;-90
2023/01/07 12:28:19;;;;;;;6.97;2.17;;;10.80;99.90;;;;;;5013737;28;20045;-90
2023/01/07 12:31:13;;;;;;;5.93;1.98;;;10.80;99.90;;;;;;5016066;28;20128;-91
2023/01/07 12:33:48;;;;;;;6.30;2.20;;;10.80;99.90;;;;;;5010100;28;20044;-89
2023/01/07 12:36:28;;;;;;;5.93;2.10;;;10.80;99.90;;;;;;5015278;28;20045;-89
2023/01/07 12:39:19;;;;;;;6.07;2.25;;;10.90;99.90;;;;;;5035714;28;20111;-91
2023/01/07 12:41:55;;;;;;;5.95;2.05;;;10.90;99.90;;;;;;5025759;28;20060;-91
2023/01/07 12:44:21;;;;;;;5.65;2.08;;;11.00;99.90;;;;;;5009288;28;20053;-90
2023/01/07 12:47:14;;;;;;;5.35;2.00;;;11.10;99.90;;;;;;5010562;28;20033;-90
2023/01/07 12:50:11;;;;;;;8.95;2.30;;;10.40;99.90;;;;;;5024593;28;20092;-91
2023/01/07 12:52:45;;;;;;;6.13;2.00;;;11.20;99.90;;;;;;5011833;28;20038;-91
2023/01/07 12:55:26;;;;;;;6.53;2.03;;;11.20;99.90;;;;;;5044433;28;20498;-91
2023/01/07 12:58:07;;;;;;;5.97;2.15;;;11.20;99.90;;;;;;5019110;28;20062;-91
2023/01/07 13:00:59;;;;;;;5.25;1.92;;;11.10;99.90;;;;;;5041894;28;20555;-91
2023/01/07 13:03:45;;;;;;;3.92;1.70;;;12.00;99.90;;;;;;5020421;28;20063;-91
2023/01/07 13:06:37;;;;;;;3.97;1.75;;;11.20;99.90;;;;;;5022247;28;20394;-90
2023/01/07 13:09:37;;;;;;;6.72;1.95;;;11.10;99.90;;;;;;5032567;28;20501;-88
2023/01/07 13:15:13;;;;;;;4.95;1.65;;;10.80;99.90;;;;;;5024326;28;20045;-90
2023/01/07 13:17:44;;;;;;;7.40;2.10;;;11.10;99.90;;;;;;4997432;28;20085;-90
2023/01/07 13:20:15;;;;;;;4.47;1.63;;;11.10;99.90;;;;;;5018867;28;20042;-90